Juan Manuel Galvez International Airport
MHRO : now visible

Airfield :











YOU CAN JOIN US ON...

 
LOGIN :

Register | Disclaimer

   EN    FR    IT 

 









Legend :    VFR   Marginal VFR   IFR   Intensive IFR   Very Intensive IFR
Visi :
Ceiling :
>= 8 km
>= 3000ft
5 to 8 km
1000 to 3000 ft
1500m to 5 km
500 to 1000 ft
800 to 1500m
200 to 500 ft
< 800m
< 200 ft
Symbols :   Thunderstorms  Fog  Heavy snow  Heavy precipitations  Wind > 20 kt






- Airport Elevation : 18 ft
- IATA code : RTB


MHRO - Juan Manuel Galvez International

CURRENT METAR :
  • 071900Z 19003KT 9999 BKN025TCU 27/22 Q1018 A3006 NOSIG

EXPIRED METARs :
  • 071800Z 13008KT 9999 BKN025TCU 30/24 Q1019 A3009 NOSIG
  • 071700Z 07006KT 9999 BKN025 28/22 Q1019 A3009 NOSIG

TAF TAF MHRO
Valid from the 07 at 18:00 until the 08 at 18:00 UTC


071615Z 0718/0818 09006KT 9999 FEW022TCU SCT080 TX29/0719Z TN23/0812Z
TEMPO 0802/0808 35012KT 8000 VCSH SCT022TCU SCT080
BECMG 0808/0810 11010 9999 NSW FEW022 BKN080
BECMG 0814/0816 01006KT 7000 VCSH SCT025 BKN070



MET'MAP, your aeronautical weather chart ! - Copyright ORBIFLY December 2007 - Disclaimer

ORBIFLY MET'MAP TEAM :

Programming & Development : Alexandra Zaïnal
Concept & original design : Baudouin d'Aumeries
Assistance for programming : Marc-Olivier Méhu
Technical & hardware support : Manuel Goepfert

Contact : metmap@orbifly.com




SOURCES & CREDITS :

   NOAA       Earth
Advisory